createdAt,value
2023-05-05T00:00:46.224Z,984.17
2023-05-05T00:01:46.221Z,984.14
2023-05-05T00:02:46.297Z,984.15
2023-05-05T00:03:46.284Z,984.18
2023-05-05T00:04:46.176Z,984.13
2023-05-05T00:05:46.161Z,984.11
2023-05-05T00:06:46.154Z,984.16
2023-05-05T00:07:46.138Z,984.10
2023-05-05T00:08:46.146Z,984.11
2023-05-05T00:09:46.117Z,984.15
2023-05-05T00:10:46.104Z,984.12
2023-05-05T00:11:46.097Z,984.17
2023-05-05T00:12:46.129Z,984.13
2023-05-05T00:13:46.073Z,984.09
2023-05-05T00:14:46.067Z,984.08
2023-05-05T00:15:46.069Z,984.08
2023-05-05T00:16:46.109Z,984.09
2023-05-05T00:17:46.071Z,984.06
2023-05-05T00:18:46.025Z,984.09
2023-05-05T00:19:46.008Z,984.03
2023-05-05T00:20:46.000Z,984.03
2023-05-05T00:21:45.993Z,984.04
2023-05-05T00:22:45.988Z,984.12
2023-05-05T00:23:45.959Z,984.08
2023-05-05T00:24:45.971Z,984.06
2023-05-05T00:25:45.965Z,984.02
2023-05-05T00:26:45.950Z,984.02
2023-05-05T00:27:45.924Z,984.01
2023-05-05T00:28:45.951Z,984.04
2023-05-05T00:29:45.902Z,984.01
2023-05-05T00:30:45.903Z,984.02
2023-05-05T00:31:45.914Z,984.00
2023-05-05T00:32:45.909Z,984.04
2023-05-05T00:33:45.875Z,984.01
2023-05-05T00:34:45.856Z,984.06
2023-05-05T00:35:45.842Z,984.04
2023-05-05T00:36:45.827Z,983.97
2023-05-05T00:37:45.821Z,984.05
2023-05-05T00:38:45.823Z,984.04
2023-05-05T00:39:45.809Z,984.04
2023-05-05T00:40:45.790Z,984.06
2023-05-05T00:41:45.789Z,984.07
2023-05-05T00:42:45.792Z,984.07
2023-05-05T00:43:45.758Z,984.00
2023-05-05T00:44:45.767Z,984.04
2023-05-05T00:45:45.735Z,984.00
2023-05-05T00:46:45.844Z,984.06
2023-05-05T00:47:45.739Z,984.08
2023-05-05T00:48:45.716Z,984.01
2023-05-05T00:49:45.682Z,984.05
2023-05-05T00:50:45.680Z,984.06
2023-05-05T00:51:45.678Z,984.15
2023-05-05T00:52:45.686Z,984.05
2023-05-05T00:53:45.659Z,984.15
2023-05-05T00:54:45.646Z,984.09
2023-05-05T00:55:45.636Z,984.11
2023-05-05T00:56:45.619Z,984.05
2023-05-05T00:57:45.669Z,984.08
2023-05-05T00:58:45.601Z,984.06
2023-05-05T00:59:45.582Z,983.94
2023-05-05T01:00:45.611Z,984.03
2023-05-05T01:01:45.582Z,984.07
2023-05-05T01:02:45.640Z,984.04
2023-05-05T01:03:45.673Z,984.10
2023-05-05T01:04:45.528Z,984.05
2023-05-05T01:05:45.514Z,984.01
2023-05-05T01:06:45.510Z,984.03
2023-05-05T01:07:45.494Z,984.10
2023-05-05T01:08:45.490Z,984.09
2023-05-05T01:09:45.467Z,984.06
2023-05-05T01:10:45.465Z,984.08
2023-05-05T01:11:45.471Z,984.14
2023-05-05T01:12:45.522Z,984.11
2023-05-05T01:13:45.430Z,984.05
2023-05-05T01:14:45.424Z,984.05
2023-05-05T01:15:45.406Z,984.07
2023-05-05T01:16:45.407Z,984.04
2023-05-05T01:17:45.440Z,984.02
2023-05-05T01:18:45.379Z,983.98
2023-05-05T01:19:45.370Z,984.04
2023-05-05T01:20:45.365Z,984.08
2023-05-05T01:21:45.347Z,984.07
2023-05-05T01:22:45.331Z,984.09
2023-05-05T01:23:45.338Z,984.02
2023-05-05T01:24:45.302Z,984.00
2023-05-05T01:25:45.299Z,984.02
2023-05-05T01:26:45.288Z,983.98
2023-05-05T01:27:45.306Z,983.96
2023-05-05T01:28:45.262Z,983.97
2023-05-05T01:29:45.260Z,983.95
2023-05-05T01:30:45.242Z,983.97
2023-05-05T01:31:45.306Z,983.97
2023-05-05T01:32:45.314Z,984.01
2023-05-05T01:33:45.213Z,983.97
2023-05-05T01:34:45.202Z,984.03
2023-05-05T01:35:45.203Z,983.96
2023-05-05T01:36:45.180Z,983.99
2023-05-05T01:37:45.168Z,983.94
2023-05-05T01:38:45.175Z,983.91
2023-05-05T01:39:45.147Z,983.92
2023-05-05T01:40:45.141Z,983.90
2023-05-05T01:41:45.143Z,983.92
2023-05-05T01:42:45.123Z,983.95
2023-05-05T01:43:45.103Z,983.98
2023-05-05T01:44:45.098Z,983.95
2023-05-05T01:45:45.119Z,983.99
2023-05-05T01:46:45.084Z,983.97
2023-05-05T01:47:45.092Z,983.99
2023-05-05T01:48:45.056Z,984.04
2023-05-05T01:49:45.046Z,984.01
2023-05-05T01:50:45.018Z,983.96
2023-05-05T01:51:45.014Z,983.95
2023-05-05T01:52:45.006Z,984.01
2023-05-05T01:53:44.993Z,984.01
2023-05-05T01:54:44.978Z,983.95
2023-05-05T01:55:44.980Z,983.97
2023-05-05T01:56:44.972Z,983.96
2023-05-05T01:57:44.956Z,983.98
2023-05-05T01:58:44.965Z,983.97
2023-05-05T01:59:44.931Z,983.91
2023-05-05T02:00:44.938Z,983.90
2023-05-05T02:01:44.994Z,983.95
2023-05-05T02:02:44.967Z,983.98
2023-05-05T02:03:44.893Z,983.95
2023-05-05T02:04:44.930Z,983.90
2023-05-05T02:05:44.883Z,983.97
2023-05-05T02:06:44.860Z,983.98
2023-05-05T02:07:44.851Z,983.98
2023-05-05T02:08:44.847Z,984.00
2023-05-05T02:09:44.832Z,984.03
2023-05-05T02:10:44.853Z,984.00
2023-05-05T02:11:44.815Z,983.97
2023-05-05T02:12:44.819Z,983.99
2023-05-05T02:13:44.822Z,984.04
2023-05-05T02:14:44.845Z,984.04
2023-05-05T02:15:44.794Z,984.06
2023-05-05T02:16:44.753Z,984.06
2023-05-05T02:17:44.818Z,984.06
2023-05-05T02:18:44.725Z,984.06
2023-05-05T02:19:44.722Z,984.05
2023-05-05T02:20:44.718Z,984.02
2023-05-05T02:21:44.707Z,984.05
2023-05-05T02:22:44.692Z,984.06
2023-05-05T02:23:44.691Z,984.09
2023-05-05T02:24:44.670Z,984.11
2023-05-05T02:25:44.656Z,984.10
2023-05-05T02:26:44.645Z,984.20
2023-05-05T02:27:44.645Z,984.24
2023-05-05T02:28:44.617Z,984.25
2023-05-05T02:29:44.605Z,984.18
2023-05-05T02:30:44.624Z,984.25
2023-05-05T02:31:44.741Z,984.21
2023-05-05T02:32:44.674Z,984.20
2023-05-05T02:33:44.629Z,984.18
2023-05-05T02:34:44.586Z,984.19
2023-05-05T02:35:44.557Z,984.19
2023-05-05T02:36:44.563Z,984.20
2023-05-05T02:37:44.536Z,984.20
2023-05-05T02:38:44.528Z,984.25
2023-05-05T02:39:44.526Z,984.20
2023-05-05T02:40:44.496Z,984.25
2023-05-05T02:41:44.484Z,984.25
2023-05-05T02:42:44.558Z,984.35
2023-05-05T02:43:44.526Z,984.23
2023-05-05T02:44:44.473Z,984.29
2023-05-05T02:45:44.448Z,984.34
2023-05-05T02:46:44.479Z,984.33
2023-05-05T02:47:44.469Z,984.31
2023-05-05T02:48:44.413Z,984.30
2023-05-05T02:49:44.395Z,984.34
2023-05-05T02:50:44.400Z,984.32
2023-05-05T02:51:44.364Z,984.32
2023-05-05T02:52:44.377Z,984.36
2023-05-05T02:53:44.347Z,984.39
2023-05-05T02:54:44.354Z,984.41
2023-05-05T02:55:44.320Z,984.41
2023-05-05T02:56:44.330Z,984.40
2023-05-05T02:57:44.304Z,984.34
2023-05-05T02:58:44.300Z,984.42
2023-05-05T02:59:44.294Z,984.40
2023-05-05T03:00:44.279Z,984.38
2023-05-05T03:01:44.315Z,984.36
2023-05-05T03:02:44.314Z,984.43
2023-05-05T03:03:44.392Z,984.37
2023-05-05T03:04:44.237Z,984.38
2023-05-05T03:05:44.225Z,984.39
2023-05-05T03:06:44.219Z,984.40
2023-05-05T03:07:44.217Z,984.41
2023-05-05T03:08:44.206Z,984.36
2023-05-05T03:09:44.166Z,984.41
2023-05-05T03:10:44.176Z,984.46
2023-05-05T03:11:44.151Z,984.39
2023-05-05T03:12:44.174Z,984.45
2023-05-05T03:13:44.134Z,984.39
2023-05-05T03:14:44.148Z,984.45
2023-05-05T03:15:44.105Z,984.43
2023-05-05T03:16:44.283Z,984.44
2023-05-05T03:17:44.156Z,984.44
2023-05-05T03:18:44.094Z,984.46
2023-05-05T03:19:44.069Z,984.43
2023-05-05T03:20:44.080Z,984.46
2023-05-05T03:21:44.037Z,984.48
2023-05-05T03:22:44.060Z,984.47
2023-05-05T03:23:44.021Z,984.49
2023-05-05T03:24:44.017Z,984.48
2023-05-05T03:25:43.999Z,984.46
2023-05-05T03:26:43.994Z,984.47
2023-05-05T03:27:43.990Z,984.42
2023-05-05T03:28:43.999Z,984.42
2023-05-05T03:29:43.978Z,984.40
2023-05-05T03:30:44.006Z,984.35
2023-05-05T03:31:44.017Z,984.42
2023-05-05T03:32:43.951Z,984.45
2023-05-05T03:33:43.911Z,984.40
2023-05-05T03:34:43.950Z,984.42
2023-05-05T03:35:43.894Z,984.42
2023-05-05T03:36:43.875Z,984.41
2023-05-05T03:37:43.868Z,984.43
2023-05-05T03:38:43.873Z,984.47
2023-05-05T03:39:43.853Z,984.49
2023-05-05T03:40:44.793Z,984.48
2023-05-05T03:41:43.834Z,984.45
2023-05-05T03:42:43.822Z,984.49
2023-05-05T03:43:43.797Z,984.41
2023-05-05T03:44:43.830Z,984.45
2023-05-05T03:45:43.809Z,984.43
2023-05-05T03:46:43.778Z,984.42
2023-05-05T03:47:43.779Z,984.42
2023-05-05T03:48:43.775Z,984.40
2023-05-05T03:49:43.747Z,984.40
2023-05-05T03:50:43.735Z,984.41
2023-05-05T03:51:43.726Z,984.43
2023-05-05T03:52:43.711Z,984.50
2023-05-05T03:53:43.690Z,984.47
2023-05-05T03:54:43.704Z,984.46
2023-05-05T03:55:43.700Z,984.48
2023-05-05T03:56:43.655Z,984.50
2023-05-05T03:57:43.667Z,984.45
2023-05-05T03:58:43.648Z,984.46
2023-05-05T03:59:43.634Z,984.48
2023-05-05T04:00:43.630Z,984.47
2023-05-05T04:01:43.604Z,984.44
2023-05-05T04:02:43.972Z,984.49
2023-05-05T04:03:43.700Z,984.46
2023-05-05T04:04:43.579Z,984.54
2023-05-05T04:05:43.599Z,984.48
2023-05-05T04:06:43.569Z,984.54
2023-05-05T04:07:43.553Z,984.52
2023-05-05T04:08:43.556Z,984.51
2023-05-05T04:09:43.529Z,984.52
2023-05-05T04:10:43.523Z,984.58
2023-05-05T04:11:43.519Z,984.47
2023-05-05T04:12:43.554Z,984.53
2023-05-05T04:13:43.486Z,984.49
2023-05-05T04:14:43.485Z,984.51
2023-05-05T04:15:43.494Z,984.49
2023-05-05T04:16:43.457Z,984.45
2023-05-05T04:17:43.447Z,984.47
2023-05-05T04:18:43.445Z,984.48
2023-05-05T04:19:43.433Z,984.44
2023-05-05T04:20:43.411Z,984.50
2023-05-05T04:21:43.421Z,984.50
2023-05-05T04:22:43.391Z,984.54
2023-05-05T04:23:43.385Z,984.52
2023-05-05T04:24:43.390Z,984.48
2023-05-05T04:25:43.399Z,984.52
2023-05-05T04:26:43.357Z,984.48
2023-05-05T04:27:43.348Z,984.45
2023-05-05T04:28:43.330Z,984.52
2023-05-05T04:29:43.336Z,984.48
2023-05-05T04:30:43.314Z,984.49
2023-05-05T04:31:43.684Z,984.51
2023-05-05T04:32:43.364Z,984.46
2023-05-05T04:33:43.321Z,984.50
2023-05-05T04:34:43.280Z,984.48
2023-05-05T04:35:43.245Z,984.47
2023-05-05T04:36:43.261Z,984.47
2023-05-05T04:37:43.254Z,984.53
2023-05-05T04:38:43.708Z,984.46
2023-05-05T04:39:43.207Z,984.52
2023-05-05T04:40:43.205Z,984.53
2023-05-05T04:41:43.193Z,984.55
2023-05-05T04:42:43.175Z,984.52
2023-05-05T04:43:43.180Z,984.58
2023-05-05T04:44:43.198Z,984.62
2023-05-05T04:45:43.143Z,984.64
2023-05-05T04:46:43.146Z,984.65
2023-05-05T04:47:43.208Z,984.70
2023-05-05T04:48:43.120Z,984.74
2023-05-05T04:49:43.105Z,984.69
2023-05-05T04:50:43.127Z,984.72
2023-05-05T04:51:43.103Z,984.72
2023-05-05T04:52:43.070Z,984.74
2023-05-05T04:53:43.073Z,984.70
2023-05-05T04:54:44.014Z,984.75
2023-05-05T04:55:43.107Z,984.69
2023-05-05T04:56:43.033Z,984.69
2023-05-05T04:57:43.024Z,984.76
2023-05-05T04:58:43.096Z,984.75
2023-05-05T04:59:42.988Z,984.70
2023-05-05T05:00:43.966Z,984.68
2023-05-05T05:01:42.981Z,984.75
2023-05-05T05:02:43.088Z,984.74
2023-05-05T05:03:43.036Z,984.73
2023-05-05T05:04:42.932Z,984.69
2023-05-05T05:05:42.921Z,984.76
2023-05-05T05:06:42.909Z,984.81
2023-05-05T05:07:42.896Z,984.76
2023-05-05T05:08:42.919Z,984.78
2023-05-05T05:09:42.886Z,984.81
2023-05-05T05:10:43.881Z,984.83
2023-05-05T05:11:42.869Z,984.84
2023-05-05T05:12:44.312Z,984.92
2023-05-05T05:13:42.855Z,984.80
2023-05-05T05:14:43.803Z,984.83
2023-05-05T05:15:42.844Z,984.87
2023-05-05T05:16:44.187Z,984.87
2023-05-05T05:17:42.890Z,984.83
2023-05-05T05:18:43.773Z,984.87
2023-05-05T05:19:42.835Z,984.87
2023-05-05T05:20:43.495Z,984.86
2023-05-05T05:21:42.781Z,984.87
2023-05-05T05:22:43.720Z,984.90
2023-05-05T05:23:42.781Z,984.90
2023-05-05T05:24:43.460Z,984.88
2023-05-05T05:25:42.721Z,984.90
2023-05-05T05:26:43.438Z,984.89
2023-05-05T05:27:42.719Z,984.91
2023-05-05T05:28:43.410Z,984.89
2023-05-05T05:29:42.978Z,984.91
2023-05-05T05:30:43.386Z,984.89
2023-05-05T05:31:42.720Z,984.90
2023-05-05T05:32:43.373Z,984.93
2023-05-05T05:33:42.650Z,984.94
2023-05-05T05:34:42.923Z,984.97
2023-05-05T05:35:42.611Z,984.97
2023-05-05T05:36:43.853Z,984.98
2023-05-05T05:37:42.618Z,984.99
2023-05-05T05:38:43.291Z,984.98
2023-05-05T05:39:43.710Z,984.97
2023-05-05T05:40:42.568Z,984.99
2023-05-05T05:41:42.539Z,984.99
2023-05-05T05:42:42.584Z,984.99
2023-05-05T05:43:42.566Z,984.96
2023-05-05T05:44:42.981Z,985.01
2023-05-05T05:45:42.523Z,984.97
2023-05-05T05:46:43.320Z,984.99
2023-05-05T05:47:42.528Z,985.01
2023-05-05T05:48:43.003Z,985.07
2023-05-05T05:49:42.442Z,984.99
2023-05-05T05:50:42.532Z,984.99
2023-05-05T05:51:42.431Z,985.02
2023-05-05T05:52:42.443Z,985.03
2023-05-05T05:53:42.410Z,985.08
2023-05-05T05:54:42.394Z,985.07
2023-05-05T05:55:42.378Z,985.07
2023-05-05T05:56:42.367Z,985.08
2023-05-05T05:57:42.356Z,985.17
2023-05-05T05:58:42.444Z,985.12
2023-05-05T05:59:42.321Z,985.12
2023-05-05T06:00:42.302Z,985.17
2023-05-05T06:01:42.326Z,985.20
2023-05-05T06:02:42.367Z,985.27
2023-05-05T06:03:42.346Z,985.28
2023-05-05T06:04:42.326Z,985.24
2023-05-05T06:05:43.255Z,985.25
2023-05-05T06:06:42.266Z,985.25
2023-05-05T06:07:42.393Z,985.20
2023-05-05T06:08:42.285Z,985.21
2023-05-05T06:09:43.253Z,985.23
2023-05-05T06:10:42.372Z,985.22
2023-05-05T06:11:42.286Z,985.20
2023-05-05T06:12:42.203Z,985.17
2023-05-05T06:13:42.274Z,985.13
2023-05-05T06:14:42.193Z,985.10
2023-05-05T06:15:42.344Z,985.15
2023-05-05T06:16:42.158Z,985.09
2023-05-05T06:17:42.180Z,985.13
2023-05-05T06:18:42.142Z,985.19
2023-05-05T06:19:42.669Z,985.12
2023-05-05T06:20:42.104Z,985.08
2023-05-05T06:21:42.324Z,985.14
2023-05-05T06:22:42.101Z,985.18
2023-05-05T06:23:42.098Z,985.19
2023-05-05T06:24:42.050Z,985.16
2023-05-05T06:25:42.048Z,985.16
2023-05-05T06:26:42.026Z,985.15
2023-05-05T06:27:42.018Z,985.11
2023-05-05T06:28:42.012Z,985.14
2023-05-05T06:29:42.016Z,985.17
2023-05-05T06:30:41.981Z,985.18
2023-05-05T06:31:42.093Z,985.16
2023-05-05T06:32:42.008Z,985.23
2023-05-05T06:33:41.975Z,985.11
2023-05-05T06:34:41.960Z,985.15
2023-05-05T06:35:41.954Z,985.16
2023-05-05T06:36:41.944Z,985.17
2023-05-05T06:37:41.920Z,985.18
2023-05-05T06:38:41.930Z,985.18
2023-05-05T06:39:41.907Z,985.19
2023-05-05T06:40:41.882Z,985.13
2023-05-05T06:41:41.880Z,985.14
2023-05-05T06:42:41.866Z,985.14
2023-05-05T06:43:41.852Z,985.19
2023-05-05T06:44:41.936Z,985.22
2023-05-05T06:45:43.663Z,985.14
2023-05-05T06:46:41.866Z,985.23
2023-05-05T06:47:41.823Z,985.22
2023-05-05T06:48:41.788Z,985.25
2023-05-05T06:49:41.794Z,985.23
2023-05-05T06:50:41.786Z,985.23
2023-05-05T06:51:42.876Z,985.21
2023-05-05T06:52:41.751Z,985.18
2023-05-05T06:53:41.747Z,985.23
2023-05-05T06:54:41.729Z,985.22
2023-05-05T06:55:41.737Z,985.21
2023-05-05T06:56:41.729Z,985.27
2023-05-05T06:57:41.697Z,985.30
2023-05-05T06:58:41.800Z,985.31
2023-05-05T06:59:41.689Z,985.28
2023-05-05T07:00:41.674Z,985.23
2023-05-05T07:01:41.661Z,985.27
2023-05-05T07:02:41.654Z,985.29
2023-05-05T07:03:41.841Z,985.28
2023-05-05T07:04:41.618Z,985.27
2023-05-05T07:05:41.619Z,985.32
2023-05-05T07:06:41.606Z,985.27
2023-05-05T07:07:41.580Z,985.26
2023-05-05T07:08:41.589Z,985.32
2023-05-05T07:09:41.573Z,985.41
2023-05-05T07:10:41.558Z,985.32
2023-05-05T07:11:41.562Z,985.30
2023-05-05T07:12:41.555Z,985.37
2023-05-05T07:13:41.522Z,985.34
2023-05-05T07:14:41.576Z,985.38
2023-05-05T07:15:41.527Z,985.36
2023-05-05T07:16:41.571Z,985.40
2023-05-05T07:17:41.525Z,985.37
2023-05-05T07:18:42.763Z,985.38
2023-05-05T07:19:41.515Z,985.40
2023-05-05T07:20:42.504Z,985.39
2023-05-05T07:21:41.506Z,985.37
2023-05-05T07:22:42.475Z,985.40
2023-05-05T07:23:41.452Z,985.36
2023-05-05T07:24:42.420Z,985.40
2023-05-05T07:25:41.449Z,985.38
2023-05-05T07:26:41.525Z,985.40
2023-05-05T07:27:41.379Z,985.42
2023-05-05T07:28:42.108Z,985.37
2023-05-05T07:29:41.369Z,985.44
2023-05-05T07:30:42.145Z,985.48
2023-05-05T07:31:41.424Z,985.44
2023-05-05T07:32:41.698Z,985.45
2023-05-05T07:33:41.327Z,985.49
2023-05-05T07:34:41.450Z,985.53
2023-05-05T07:35:41.302Z,985.53
2023-05-05T07:36:41.290Z,985.50
2023-05-05T07:37:41.286Z,985.50
2023-05-05T07:38:41.266Z,985.47
2023-05-05T07:39:41.414Z,985.47
2023-05-05T07:40:41.250Z,985.51
2023-05-05T07:41:41.249Z,985.48
2023-05-05T07:42:41.213Z,985.46
2023-05-05T07:43:42.359Z,985.49
2023-05-05T07:44:41.194Z,985.47
2023-05-05T07:45:41.254Z,985.47
2023-05-05T07:46:41.187Z,985.42
2023-05-05T07:47:41.222Z,985.43
2023-05-05T07:48:41.509Z,985.46
2023-05-05T07:49:41.136Z,985.40
2023-05-05T07:50:41.138Z,985.45
2023-05-05T07:51:41.144Z,985.47
2023-05-05T07:52:46.668Z,985.47
2023-05-05T07:53:42.120Z,985.47
2023-05-05T07:54:41.092Z,985.45
2023-05-05T07:55:41.081Z,985.49
2023-05-05T07:56:41.080Z,985.50
2023-05-05T07:57:41.117Z,985.51
2023-05-05T07:58:41.057Z,985.46
2023-05-05T07:59:41.069Z,985.55
2023-05-05T08:00:41.025Z,985.53
2023-05-05T08:01:41.020Z,985.57
2023-05-05T08:02:41.068Z,985.56
2023-05-05T08:03:41.079Z,985.64
2023-05-05T08:04:41.042Z,985.60
2023-05-05T08:05:40.966Z,985.62
2023-05-05T08:06:40.964Z,985.63
2023-05-05T08:07:41.315Z,985.59
2023-05-05T08:08:40.955Z,985.63
2023-05-05T08:09:40.941Z,985.64
2023-05-05T08:10:40.926Z,985.64
2023-05-05T08:11:40.978Z,985.66
2023-05-05T08:12:40.935Z,985.62
2023-05-05T08:13:40.903Z,985.58
2023-05-05T08:14:40.876Z,985.64
2023-05-05T08:15:40.915Z,985.55
2023-05-05T08:16:40.879Z,985.61
2023-05-05T08:17:40.862Z,985.66
2023-05-05T08:18:40.840Z,985.59
2023-05-05T08:19:40.833Z,985.61
2023-05-05T08:20:40.842Z,985.68
2023-05-05T08:21:40.849Z,985.63
2023-05-05T08:22:40.790Z,985.64
2023-05-05T08:23:40.779Z,985.60
2023-05-05T08:24:40.789Z,985.68
2023-05-05T08:25:40.756Z,985.66
2023-05-05T08:26:40.747Z,985.65
2023-05-05T08:27:40.757Z,985.72
2023-05-05T08:28:40.732Z,985.68
2023-05-05T08:29:40.726Z,985.68
2023-05-05T08:30:40.735Z,985.68
2023-05-05T08:31:40.742Z,985.66
2023-05-05T08:32:40.744Z,985.70
2023-05-05T08:33:40.687Z,985.69
2023-05-05T08:34:40.654Z,985.73
2023-05-05T08:35:40.681Z,985.65
2023-05-05T08:36:40.656Z,985.61
2023-05-05T08:37:40.644Z,985.66
2023-05-05T08:38:40.625Z,985.70
2023-05-05T08:39:40.619Z,985.67
2023-05-05T08:40:40.626Z,985.69
2023-05-05T08:41:40.608Z,985.67
2023-05-05T08:42:40.586Z,985.67
2023-05-05T08:43:40.580Z,985.69
2023-05-05T08:44:40.564Z,985.70
2023-05-05T08:45:40.557Z,985.71
2023-05-05T08:46:40.564Z,985.70
2023-05-05T08:47:40.590Z,985.74
2023-05-05T08:48:40.520Z,985.72
2023-05-05T08:49:40.515Z,985.71
2023-05-05T08:50:40.506Z,985.74
2023-05-05T08:51:40.490Z,985.70
2023-05-05T08:52:40.571Z,985.71
2023-05-05T08:53:40.468Z,985.67
2023-05-05T08:54:40.450Z,985.68
2023-05-05T08:55:40.431Z,985.70
2023-05-05T08:56:40.427Z,985.65
2023-05-05T08:57:40.424Z,985.63
2023-05-05T08:58:40.419Z,985.62
2023-05-05T08:59:40.429Z,985.69
2023-05-05T09:00:40.416Z,985.72
2023-05-05T09:01:40.385Z,985.70
2023-05-05T09:02:40.481Z,985.65
2023-05-05T09:03:40.360Z,985.69
2023-05-05T09:04:40.346Z,985.71
2023-05-05T09:05:40.339Z,985.78
2023-05-05T09:06:40.326Z,985.75
2023-05-05T09:07:40.301Z,985.74
2023-05-05T09:08:40.319Z,985.70
2023-05-05T09:09:40.286Z,985.74
2023-05-05T09:10:40.289Z,985.71
2023-05-05T09:11:40.281Z,985.65
2023-05-05T09:12:40.421Z,985.73
2023-05-05T09:13:40.246Z,985.72
2023-05-05T09:14:40.240Z,985.71
2023-05-05T09:15:40.236Z,985.75
2023-05-05T09:16:40.286Z,985.67
2023-05-05T09:17:40.243Z,985.68
2023-05-05T09:18:40.205Z,985.75
2023-05-05T09:19:40.194Z,985.77
2023-05-05T09:20:40.172Z,985.69
2023-05-05T09:21:40.159Z,985.73
2023-05-05T09:22:40.157Z,985.63
2023-05-05T09:23:40.158Z,985.72
2023-05-05T09:24:40.122Z,985.74
2023-05-05T09:25:40.130Z,985.74
2023-05-05T09:26:40.149Z,985.66
2023-05-05T09:27:40.087Z,985.68
2023-05-05T09:28:40.068Z,985.67
2023-05-05T09:29:40.072Z,985.62
2023-05-05T09:30:40.085Z,985.64
2023-05-05T09:31:40.067Z,985.61
2023-05-05T09:32:40.127Z,985.57
2023-05-05T09:33:40.039Z,985.55
2023-05-05T09:34:40.029Z,985.57
2023-05-05T09:35:40.025Z,985.55
2023-05-05T09:36:40.054Z,985.53
2023-05-05T09:37:39.986Z,985.46
2023-05-05T09:38:39.994Z,985.49
2023-05-05T09:39:39.996Z,985.46
2023-05-05T09:40:39.951Z,985.45
2023-05-05T09:41:39.968Z,985.44
2023-05-05T09:42:39.979Z,985.45
2023-05-05T09:43:39.915Z,985.44
2023-05-05T09:44:39.924Z,985.44
2023-05-05T09:45:39.897Z,985.42
2023-05-05T09:46:39.916Z,985.48
2023-05-05T09:47:39.916Z,985.42
2023-05-05T09:48:39.902Z,985.38
2023-05-05T09:49:39.876Z,985.41
2023-05-05T09:50:39.830Z,985.45
2023-05-05T09:51:39.829Z,985.44
2023-05-05T09:52:39.811Z,985.45
2023-05-05T09:53:39.821Z,985.46
2023-05-05T09:54:39.800Z,985.45
2023-05-05T09:55:39.810Z,985.46
2023-05-05T09:56:39.785Z,985.47
2023-05-05T09:57:39.766Z,985.41
2023-05-05T09:58:39.785Z,985.37
2023-05-05T09:59:39.747Z,985.35
2023-05-05T10:00:39.794Z,985.34
2023-05-05T10:01:39.790Z,985.29
2023-05-05T10:02:39.748Z,985.37
2023-05-05T10:03:39.705Z,985.34
2023-05-05T10:04:39.712Z,985.37
2023-05-05T10:05:39.678Z,985.40
2023-05-05T10:06:39.712Z,985.40
2023-05-05T10:07:39.651Z,985.38
2023-05-05T10:08:39.663Z,985.39
2023-05-05T10:09:39.641Z,985.41
2023-05-05T10:10:39.622Z,985.38
2023-05-05T10:11:39.625Z,985.33
2023-05-05T10:12:39.627Z,985.36
2023-05-05T10:13:39.601Z,985.34
2023-05-05T10:14:39.591Z,985.35
2023-05-05T10:15:39.593Z,985.35
2023-05-05T10:16:39.623Z,985.33
2023-05-05T10:17:39.547Z,985.34
2023-05-05T10:18:39.596Z,985.36
2023-05-05T10:19:39.542Z,985.23
2023-05-05T10:20:39.514Z,985.33
2023-05-05T10:21:41.465Z,985.29
2023-05-05T10:22:39.483Z,985.29
2023-05-05T10:23:39.467Z,985.32
2023-05-05T10:24:39.483Z,985.29
2023-05-05T10:25:39.522Z,985.28
2023-05-05T10:26:39.467Z,985.31
2023-05-05T10:27:39.438Z,985.32
2023-05-05T10:28:39.474Z,985.30
2023-05-05T10:29:39.416Z,985.26
2023-05-05T10:30:39.417Z,985.21
2023-05-05T10:31:39.429Z,985.25
2023-05-05T10:33:39.472Z,985.20
2023-05-05T10:34:39.460Z,985.20
2023-05-05T10:35:39.363Z,985.26
2023-05-05T10:36:39.357Z,985.19
2023-05-05T10:37:39.355Z,985.16
2023-05-05T10:38:39.322Z,985.20
2023-05-05T10:39:39.321Z,985.15
2023-05-05T10:40:39.324Z,985.13
2023-05-05T10:41:39.298Z,985.09
2023-05-05T10:42:39.296Z,985.14
2023-05-05T10:43:39.289Z,985.09
2023-05-05T10:44:39.265Z,985.18
2023-05-05T10:45:39.375Z,985.18
2023-05-05T10:46:39.333Z,985.17
2023-05-05T10:47:39.235Z,985.11
2023-05-05T10:48:39.279Z,985.18
2023-05-05T10:49:39.195Z,985.16
2023-05-05T10:50:39.201Z,985.10
2023-05-05T10:51:40.673Z,985.17
2023-05-05T10:52:39.186Z,985.19
2023-05-05T10:53:39.276Z,985.11
2023-05-05T10:54:39.149Z,985.18
2023-05-05T10:55:39.132Z,985.13
2023-05-05T10:56:39.141Z,985.06
2023-05-05T10:57:39.127Z,985.07
2023-05-05T10:58:55.370Z,985.03
2023-05-05T10:59:40.117Z,985.01
2023-05-05T11:00:39.120Z,985.06
2023-05-05T11:01:39.109Z,984.94
2023-05-05T11:02:39.111Z,984.94
2023-05-05T11:03:39.069Z,984.90
2023-05-05T11:04:39.050Z,984.91
2023-05-05T11:05:39.034Z,984.85
2023-05-05T11:06:39.033Z,984.84
2023-05-05T11:07:39.032Z,984.82
2023-05-05T11:08:39.018Z,984.82
2023-05-05T11:09:39.014Z,984.79
2023-05-05T11:10:39.004Z,984.81
2023-05-05T11:11:38.972Z,984.77
2023-05-05T11:12:39.129Z,984.72
2023-05-05T11:13:38.957Z,984.81
2023-05-05T11:14:38.939Z,984.75
2023-05-05T11:15:38.930Z,984.75
2023-05-05T11:16:38.968Z,984.72
2023-05-05T11:17:38.942Z,984.68
2023-05-05T11:18:39.855Z,984.69
2023-05-05T11:19:38.880Z,984.67
2023-05-05T11:20:38.873Z,984.72
2023-05-05T11:21:38.869Z,984.65
2023-05-05T11:22:38.846Z,984.64
2023-05-05T11:23:38.843Z,984.60
2023-05-05T11:24:38.832Z,984.59
2023-05-05T11:25:38.847Z,984.60
2023-05-05T11:26:38.821Z,984.60
2023-05-05T11:27:38.821Z,984.59
2023-05-05T11:28:38.820Z,984.53
2023-05-05T11:29:38.773Z,984.54
2023-05-05T11:30:38.775Z,984.59
2023-05-05T11:31:38.764Z,984.58
2023-05-05T11:32:38.813Z,984.63
2023-05-05T11:33:38.731Z,984.63
2023-05-05T11:34:38.727Z,984.58
2023-05-05T11:35:38.709Z,984.65
2023-05-05T11:36:38.704Z,984.63
2023-05-05T11:37:38.689Z,984.65
2023-05-05T11:38:38.821Z,984.60
2023-05-05T11:39:38.660Z,984.58
2023-05-05T11:40:38.651Z,984.61
2023-05-05T11:41:38.684Z,984.58
2023-05-05T11:42:38.652Z,984.63
2023-05-05T11:43:38.629Z,984.56
2023-05-05T11:44:38.632Z,984.48
2023-05-05T11:45:38.604Z,984.47
2023-05-05T11:46:38.670Z,984.48
2023-05-05T11:47:38.603Z,984.40
2023-05-05T11:48:38.576Z,984.57
2023-05-05T11:49:38.617Z,984.53
2023-05-05T11:50:38.549Z,984.52
2023-05-05T11:51:38.551Z,984.58
2023-05-05T11:52:38.556Z,984.61
2023-05-05T11:53:38.553Z,984.56
2023-05-05T11:54:38.519Z,984.55
2023-05-05T11:55:38.495Z,984.58
2023-05-05T11:56:38.478Z,984.52
2023-05-05T11:57:38.466Z,984.50
2023-05-05T11:58:38.451Z,984.51
2023-05-05T11:59:38.447Z,984.47
2023-05-05T12:00:38.486Z,984.53
2023-05-05T12:01:38.434Z,984.53
2023-05-05T12:02:38.517Z,984.50
2023-05-05T12:03:38.665Z,984.52
2023-05-05T12:04:38.461Z,984.57
2023-05-05T12:05:38.393Z,984.49
2023-05-05T12:06:38.390Z,984.43
2023-05-05T12:07:38.363Z,984.45
2023-05-05T12:08:38.343Z,984.44
2023-05-05T12:09:38.331Z,984.47
2023-05-05T12:10:38.321Z,984.42
2023-05-05T12:11:38.321Z,984.46
2023-05-05T12:12:38.426Z,984.44
2023-05-05T12:13:38.290Z,984.41
2023-05-05T12:14:38.325Z,984.41
2023-05-05T12:15:38.270Z,984.39
2023-05-05T12:16:38.331Z,984.35
2023-05-05T12:17:38.280Z,984.36
2023-05-05T12:18:38.249Z,984.29
2023-05-05T12:19:38.236Z,984.30
2023-05-05T12:20:38.235Z,984.26
2023-05-05T12:21:38.223Z,984.28
2023-05-05T12:22:38.236Z,984.21
2023-05-05T12:23:38.197Z,984.28
2023-05-05T12:24:38.198Z,984.23
2023-05-05T12:25:38.384Z,984.19
2023-05-05T12:26:38.162Z,984.22
2023-05-05T12:27:38.161Z,984.18
2023-05-05T12:28:38.135Z,984.19
2023-05-05T12:29:38.127Z,984.19